^^
Saratoga-Weather Station Historical Data
Daily Summary for August 31, 2021 Units:  Metric    English   Both
Daily Weekly Monthly Yearly Custom
  High: Low: Average:
Temperature: 22.2 °C 13.8 °C 18 °C
Dew Point: 14.4 °C 10.7 °C 12.5 °C
Humidity: 84% 57% 71%
Wind Speed: 16.3km/h 0km/h 3.6km/h
Wind Gust: 19.3km/h - -
Wind- - WSW
Pressure: 1010.8 hPa 1009.1 hPa -
Precipitation: 0.0 mm    
Historical Graphs
 
 
Tabular Data for August 31, 2021
Time Temperature Dew Point Pressure Wind Wind Speed Wind Gust Humidity Rainfall Rate (Hourly) solar
00:03 17 °C 11.5 °C 1009.5 hPa NE 1.4 km/h 3.2 km/h 70% 0.0 mm 0 W/m2
00:08 17.1 °C 11.6 °C 1009.5 hPa Calm   4.8 km/h 70% 0.0 mm 0 W/m2
00:13 17.1 °C 11.4 °C 1009.5 hPa NNE 1.4 km/h 3.2 km/h 69% 0.0 mm 0 W/m2
00:18 17.1 °C 11.4 °C 1009.5 hPa Calm   1.6 km/h 69% 0.0 mm 0 W/m2
00:23 17.1 °C 11.4 °C 1009.5 hPa Calm   1.6 km/h 69% 0.0 mm 0 W/m2
00:28 17.1 °C 11.6 °C 1009.5 hPa Calm   1.6 km/h 70% 0.0 mm 0 W/m2
00:33 16.9 °C 11.4 °C 1009.5 hPa Calm   1.6 km/h 70% 0.0 mm 0 W/m2
00:38 16.8 °C 11.1 °C 1009.5 hPa Calm   3.2 km/h 69% 0.0 mm 0 W/m2
00:43 16.8 °C 11.1 °C 1009.5 hPa South 1.4 km/h 3.2 km/h 69% 0.0 mm 0 W/m2
00:48 16.7 °C 11.2 °C 1009.5 hPa SSE 1.4 km/h 6.4 km/h 70% 0.0 mm 0 W/m2
00:53 16.6 °C 11.3 °C 1009.5 hPa ESE 1.4 km/h 3.2 km/h 71% 0.0 mm 0 W/m2
00:58 16.6 °C 11.3 °C 1009.5 hPa ESE 1.4 km/h 4.8 km/h 71% 0.0 mm 0 W/m2
01:03 16.4 °C 11.1 °C 1009.8 hPa NNW 1.4 km/h 3.2 km/h 71% 0.0 mm 0 W/m2
01:08 16.4 °C 11.1 °C 1009.5 hPa Calm   4.8 km/h 71% 0.0 mm 0 W/m2
01:13 16.3 °C 11 °C 1009.8 hPa South 3.2 km/h 3.2 km/h 71% 0.0 mm 0 W/m2
01:18 16.3 °C 11.2 °C 1009.8 hPa South 3.2 km/h 4.8 km/h 72% 0.0 mm 0 W/m2
01:23 16.2 °C 11.1 °C 1009.8 hPa ESE 1.4 km/h 1.6 km/h 72% 0.0 mm 0 W/m2
01:28 16.1 °C 11.1 °C 1010.2 hPa ENE 3.2 km/h 6.4 km/h 72% 0.0 mm 0 W/m2
01:33 16 °C 11.2 °C 1010.2 hPa Calm   4.8 km/h 73% 0.0 mm 0 W/m2
01:38 15.9 °C 11.1 °C 1010.2 hPa SSE 3.2 km/h 6.4 km/h 73% 0.0 mm 0 W/m2
01:43 15.8 °C 11 °C 1010.2 hPa Calm   1.6 km/h 73% 0.0 mm 0 W/m2
01:48 15.8 °C 11 °C 1010.2 hPa Calm   1.6 km/h 73% 0.0 mm 0 W/m2
01:53 15.7 °C 11.1 °C 1010.2 hPa Calm   3.2 km/h 74% 0.0 mm 0 W/m2
02:10 15.3 °C 10.9 °C 1010.2 hPa Calm   1.6 km/h 75% 0.0 mm 0 W/m2
02:15 15.3 °C 11.1 °C 1010.2 hPa Calm   1.6 km/h 76% 0.0 mm 0 W/m2
02:20 15.2 °C 11 °C 1010.2 hPa Calm   3.2 km/h 76% 0.0 mm 0 W/m2
02:25 15.2 °C 11 °C 1010.2 hPa Calm   3.2 km/h 76% 0.0 mm 0 W/m2
02:31 15.1 °C 10.9 °C 1010.2 hPa ESE 1.4 km/h 3.2 km/h 76% 0.0 mm 0 W/m2
02:36 15.1 °C 11.1 °C 1010.2 hPa Calm   1.6 km/h 77% 0.0 mm 0 W/m2
02:41 15 °C 11 °C 1010.2 hPa Calm   1.6 km/h 77% 0.0 mm 0 W/m2
02:46 14.9 °C 10.9 °C 1010.2 hPa NE 3.2 km/h 4.8 km/h 77% 0.0 mm 0 W/m2
02:51 14.8 °C 11 °C 1010.2 hPa WNW 3.2 km/h 3.2 km/h 78% 0.0 mm 0 W/m2
02:56 14.8 °C 11 °C 1010.2 hPa Calm   3.2 km/h 78% 0.0 mm 0 W/m2
03:01 14.8 °C 11 °C 1010.2 hPa WSW 4.7 km/h 4.8 km/h 78% 0.0 mm 0 W/m2
03:06 14.8 °C 11 °C 1010.2 hPa SE 1.4 km/h 4.8 km/h 78% 0.0 mm 0 W/m2
03:11 14.7 °C 10.9 °C 1010.2 hPa NNE 1.4 km/h 3.2 km/h 78% 0.0 mm 0 W/m2
03:16 14.6 °C 11 °C 1010.2 hPa Calm   3.2 km/h 79% 0.0 mm 0 W/m2
03:21 14.6 °C 11 °C 1010.2 hPa NW 6.4 km/h 6.4 km/h 79% 0.0 mm 0 W/m2
03:26 14.5 °C 10.9 °C 1010.2 hPa WSW 1.4 km/h 6.4 km/h 79% 0.0 mm 0 W/m2
03:31 14.4 °C 10.8 °C 1010.2 hPa Calm   6.4 km/h 79% 0.0 mm 0 W/m2
03:36 14.4 °C 11 °C 1010.2 hPa NNE 3.2 km/h 6.4 km/h 80% 0.0 mm 0 W/m2
03:41 14.4 °C 11 °C 1010.2 hPa Calm   3.2 km/h 80% 0.0 mm 0 W/m2
03:46 14.3 °C 10.9 °C 1010.2 hPa WSW 3.2 km/h 6.4 km/h 80% 0.0 mm 0 W/m2
03:51 14.3 °C 10.9 °C 1010.2 hPa North 4.7 km/h 4.8 km/h 80% 0.0 mm 0 W/m2
03:56 14.3 °C 10.9 °C 1010.2 hPa SSE 1.4 km/h 4.8 km/h 80% 0.0 mm 0 W/m2
04:01 14.2 °C 10.8 °C 1010.2 hPa West 4.7 km/h 6.4 km/h 80% 0.0 mm 0 W/m2
04:06 14.2 °C 10.8 °C 1010.2 hPa SSW 1.4 km/h 8 km/h 80% 0.0 mm 0 W/m2
04:11 14.2 °C 10.8 °C 1010.2 hPa NNW 3.2 km/h 9.7 km/h 80% 0.0 mm 0 W/m2
04:16 14.1 °C 10.9 °C 1010.2 hPa SE 1.4 km/h 3.2 km/h 81% 0.0 mm 0 W/m2
04:21 14.1 °C 10.9 °C 1010.2 hPa Calm   4.8 km/h 81% 0.0 mm 0 W/m2
04:26 14 °C 10.8 °C 1010.2 hPa West 1.4 km/h 9.7 km/h 81% 0.0 mm 0 W/m2
04:31 13.9 °C 10.7 °C 1010.2 hPa Calm   3.2 km/h 81% 0.0 mm 0 W/m2
04:47 14 °C 10.8 °C 1010.2 hPa NW 1.4 km/h 3.2 km/h 81% 0.0 mm 0 W/m2
04:52 14 °C 10.8 °C 1010.2 hPa SE 6.4 km/h 6.4 km/h 81% 0.0 mm 0 W/m2
04:57 14 °C 11 °C 1010.2 hPa SSE 3.2 km/h 3.2 km/h 82% 0.0 mm 0 W/m2
05:15 14.1 °C 10.9 °C 1009.8 hPa West 1.4 km/h 1.6 km/h 81% 0.0 mm 0 W/m2
05:20 14.2 °C 11 °C 1009.8 hPa Calm   3.2 km/h 81% 0.0 mm 0 W/m2
05:25 14.2 °C 11 °C 1009.8 hPa WNW 4.7 km/h 6.4 km/h 81% 0.0 mm 0 W/m2
05:30 14.2 °C 11 °C 1009.8 hPa Calm   1.6 km/h 81% 0.0 mm 0 W/m2
05:35 14.2 °C 11 °C 1010.2 hPa West 6.4 km/h 6.4 km/h 81% 0.0 mm 0 W/m2
05:40 14.2 °C 11.2 °C 1009.8 hPa NE 1.4 km/h 4.8 km/h 82% 0.0 mm 0 W/m2
05:45 14.2 °C 11.2 °C 1010.2 hPa Calm   3.2 km/h 82% 0.0 mm 0 W/m2
05:50 14.1 °C 11.1 °C 1009.8 hPa Calm   1.6 km/h 82% 0.0 mm 0 W/m2
05:55 14.2 °C 11.2 °C 1010.2 hPa Calm   1.6 km/h 82% 0.0 mm 0 W/m2
06:00 14.2 °C 11.2 °C 1009.8 hPa SW 3.2 km/h 3.2 km/h 82% 0.0 mm 0 W/m2
06:05 14.2 °C 11.2 °C 1009.8 hPa WSW 3.2 km/h 3.2 km/h 82% 0.0 mm 0 W/m2
06:10 14.1 °C 11.1 °C 1010.2 hPa West 1.4 km/h 1.6 km/h 82% 0.0 mm 5 W/m2
06:15 14.1 °C 11.1 °C 1010.2 hPa Calm   1.6 km/h 82% 0.0 mm 7 W/m2
06:20 14 °C 11 °C 1010.2 hPa WSW 1.4 km/h 4.8 km/h 82% 0.0 mm 9 W/m2
06:25 13.9 °C 11.1 °C 1010.2 hPa Calm   1.6 km/h 83% 0.0 mm 11 W/m2
06:30 13.9 °C 11.1 °C 1010.2 hPa Calm   1.6 km/h 83% 0.0 mm 14 W/m2
06:51 13.8 °C 11.1 °C 1010.2 hPa SSW 1.4 km/h 4.8 km/h 84% 0.0 mm 23 W/m2
06:56 13.8 °C 11.1 °C 1010.2 hPa North 1.4 km/h 3.2 km/h 84% 0.0 mm 25 W/m2
07:01 13.8 °C 11.1 °C 1010.2 hPa Calm   1.6 km/h 84% 0.0 mm 26 W/m2
07:21 14 °C 11.3 °C 1010.5 hPa WSW 3.2 km/h 3.2 km/h 84% 0.0 mm 35 W/m2
07:26 14.1 °C 11.4 °C 1010.5 hPa WNW 1.4 km/h 6.4 km/h 84% 0.0 mm 37 W/m2
07:31 14.1 °C 11.4 °C 1010.5 hPa WNW 3.2 km/h 4.8 km/h 84% 0.0 mm 37 W/m2
07:50 14.4 °C 11.5 °C 1010.5 hPa NNW 4.7 km/h 4.8 km/h 83% 0.0 mm 42 W/m2
07:55 14.6 °C 11.9 °C 1010.5 hPa Calm   4.8 km/h 84% 0.0 mm 46 W/m2
08:00 14.6 °C 11.7 °C 1010.2 hPa North 3.2 km/h 6.4 km/h 83% 0.0 mm 58 W/m2
08:05 14.8 °C 11.9 °C 1010.2 hPa NW 4.7 km/h 6.4 km/h 83% 0.0 mm 51 W/m2
08:25 15.6 °C 12.2 °C 1010.2 hPa WNW 3.2 km/h 6.4 km/h 80% 0.0 mm 58 W/m2
08:30 15.7 °C 12.3 °C 1010.5 hPa SW 11.1 km/h 11.3 km/h 80% 0.0 mm 62 W/m2
08:35 15.8 °C 12.4 °C 1010.5 hPa WNW 1.4 km/h 6.4 km/h 80% 0.0 mm 65 W/m2
08:40 15.9 °C 12.5 °C 1010.5 hPa WSW 4.7 km/h 11.3 km/h 80% 0.0 mm 74 W/m2
08:45 16 °C 12.4 °C 1010.5 hPa NW 1.4 km/h 9.7 km/h 79% 0.0 mm 65 W/m2
08:50 16.1 °C 12.6 °C 1010.5 hPa SW 3.2 km/h 11.3 km/h 80% 0.0 mm 62 W/m2
08:55 16.1 °C 12.5 °C 1010.5 hPa WNW 7.9 km/h 12.9 km/h 79% 0.0 mm 118 W/m2
09:00 16.2 °C 12.7 °C 1010.5 hPa WNW 3.2 km/h 9.7 km/h 80% 0.0 mm 299 W/m2
09:05 16.3 °C 12.7 °C 1010.5 hPa NW 4.7 km/h 12.9 km/h 79% 0.0 mm 374 W/m2
09:10 16.5 °C 12.7 °C 1010.5 hPa WNW 3.2 km/h 9.7 km/h 78% 0.0 mm 383 W/m2
09:15 16.6 °C 12.7 °C 1010.5 hPa West 11.1 km/h 14.5 km/h 78% 0.0 mm 369 W/m2
09:20 16.8 °C 12.9 °C 1010.5 hPa WNW 4.7 km/h 6.4 km/h 78% 0.0 mm 506 W/m2
09:25 16.8 °C 12.7 °C 1010.5 hPa WNW 7.9 km/h 14.5 km/h 77% 0.0 mm 480 W/m2
09:30 16.8 °C 12.9 °C 1010.5 hPa West 3.2 km/h 12.9 km/h 78% 0.0 mm 489 W/m2
09:35 16.9 °C 12.8 °C 1010.5 hPa SW 3.2 km/h 12.9 km/h 77% 0.0 mm 483 W/m2
09:40 17 °C 13.1 °C 1010.5 hPa ENE 9.7 km/h 9.7 km/h 78% 0.0 mm 494 W/m2
09:45 17.2 °C 13.1 °C 1010.5 hPa West 4.7 km/h 9.7 km/h 77% 0.0 mm 533 W/m2
09:50 17.3 °C 13 °C 1010.5 hPa West 16.3 km/h 17.7 km/h 76% 0.0 mm 485 W/m2
09:55 17.4 °C 12.9 °C 1010.5 hPa WSW 16.3 km/h 16.1 km/h 75% 0.0 mm 148 W/m2
10:01 17.4 °C 12.7 °C 1010.5 hPa West 4.7 km/h 17.7 km/h 74% 0.0 mm 163 W/m2
10:06 17.3 °C 12.8 °C 1010.5 hPa NW 4.7 km/h 12.9 km/h 75% 0.0 mm 599 W/m2
10:11 17.7 °C 13 °C 1010.5 hPa NW 6.4 km/h 16.1 km/h 74% 0.0 mm 596 W/m2
10:16 17.8 °C 12.9 °C 1010.5 hPa WSW 6.4 km/h 12.9 km/h 73% 0.0 mm 221 W/m2
10:21 17.8 °C 12.7 °C 1010.8 hPa West 11.1 km/h 17.7 km/h 72% 0.0 mm 162 W/m2
10:26 17.8 °C 12.9 °C 1010.5 hPa WNW 7.9 km/h 11.3 km/h 73% 0.0 mm 682 W/m2
10:43 17.8 °C 12.9 °C 1010.5 hPa WNW 1.4 km/h 4.8 km/h 73% 0.0 mm 149 W/m2
10:48 18.1 °C 12.8 °C 1010.8 hPa SSW 3.2 km/h 9.7 km/h 71% 0.0 mm 712 W/m2
10:53 18.4 °C 12.8 °C 1010.8 hPa Calm   16.1 km/h 70% 0.0 mm 216 W/m2
10:58 18.6 °C 13.2 °C 1010.5 hPa WSW 4.7 km/h 14.5 km/h 71% 0.0 mm 728 W/m2
11:03 18.6 °C 13 °C 1010.5 hPa West 1.4 km/h 11.3 km/h 70% 0.0 mm 350 W/m2
11:08 18.7 °C 13.1 °C 1010.8 hPa WNW 6.4 km/h 12.9 km/h 70% 0.0 mm 821 W/m2
11:13 18.8 °C 13 °C 1010.8 hPa WNW 6.4 km/h 16.1 km/h 69% 0.0 mm 394 W/m2
11:29 19 °C 13.2 °C 1010.8 hPa NW 13 km/h 14.5 km/h 69% 0.0 mm 350 W/m2
11:34 19.1 °C 13.3 °C 1010.8 hPa West 3.2 km/h 9.7 km/h 69% 0.0 mm 281 W/m2
11:39 19.1 °C 13.3 °C 1010.8 hPa SW 11.1 km/h 11.3 km/h 69% 0.0 mm 469 W/m2
11:44 19.1 °C 13.3 °C 1010.8 hPa WNW 6.4 km/h 12.9 km/h 69% 0.0 mm 306 W/m2
11:49 19.1 °C 13.3 °C 1010.8 hPa WNW 3.2 km/h 16.1 km/h 69% 0.0 mm 294 W/m2
11:54 19.2 °C 12.9 °C 1010.8 hPa NW 9.7 km/h 14.5 km/h 67% 0.0 mm 216 W/m2
11:59 19.2 °C 12.9 °C 1010.8 hPa WNW 7.9 km/h 12.9 km/h 67% 0.0 mm 232 W/m2
12:04 19.1 °C 12.8 °C 1010.8 hPa WNW 1.4 km/h 3.2 km/h 67% 0.0 mm 199 W/m2
12:09 18.9 °C 12.9 °C 1010.8 hPa NW 11.1 km/h 11.3 km/h 68% 0.0 mm 362 W/m2
12:14 19 °C 13 °C 1010.8 hPa NNW 7.9 km/h 11.3 km/h 68% 0.0 mm 315 W/m2
12:19 19 °C 13 °C 1010.5 hPa WNW 3.2 km/h 8 km/h 68% 0.0 mm 288 W/m2
12:24 19.2 °C 12.9 °C 1010.8 hPa West 3.2 km/h 6.4 km/h 67% 0.0 mm 207 W/m2
12:29 19.7 °C 13.2 °C 1010.5 hPa West 11.1 km/h 14.5 km/h 66% 0.0 mm 1037 W/m2
12:34 20.1 °C 13.5 °C 1010.5 hPa NW 4.7 km/h 14.5 km/h 66% 0.0 mm 1069 W/m2
12:39 20.3 °C 13 °C 1010.5 hPa SW 6.4 km/h 17.7 km/h 63% 0.0 mm 330 W/m2
12:44 20.2 °C 13.2 °C 1010.5 hPa WNW 3.2 km/h 9.7 km/h 64% 0.0 mm 1079 W/m2
12:49 20.3 °C 13.3 °C 1010.5 hPa NW 1.4 km/h 9.7 km/h 64% 0.0 mm 401 W/m2
12:54 20.2 °C 12.9 °C 1010.5 hPa WSW 13 km/h 12.9 km/h 63% 0.0 mm 513 W/m2
13:15 20.9 °C 13.3 °C 1010.5 hPa ESE 4.7 km/h 8 km/h 62% 0.0 mm 1060 W/m2
13:20 21.3 °C 14 °C 1010.5 hPa NW 4.7 km/h 8 km/h 63% 0.0 mm 1032 W/m2
13:25 21.3 °C 13.2 °C 1010.5 hPa WNW 4.7 km/h 9.7 km/h 60% 0.0 mm 1130 W/m2
13:30 21.2 °C 13.6 °C 1010.5 hPa SW 9.7 km/h 12.9 km/h 62% 0.0 mm 272 W/m2
13:35 20.8 °C 13 °C 1010.5 hPa NNW 6.4 km/h 11.3 km/h 61% 0.0 mm 301 W/m2
13:40 20.4 °C 12.9 °C 1010.5 hPa WNW 4.7 km/h 9.7 km/h 62% 0.0 mm 981 W/m2
13:45 20.6 °C 13.3 °C 1010.5 hPa NW 4.7 km/h 12.9 km/h 63% 0.0 mm 1053 W/m2
13:50 20.7 °C 13.2 °C 1010.5 hPa WSW 1.4 km/h 12.9 km/h 62% 0.0 mm 1072 W/m2
13:55 20.7 °C 12.9 °C 1010.5 hPa WSW 4.7 km/h 8 km/h 61% 0.0 mm 429 W/m2
14:00 20.8 °C 13.5 °C 1010.5 hPa NNW 4.7 km/h 6.4 km/h 63% 0.0 mm 424 W/m2
14:05 20.9 °C 13.1 °C 1010.5 hPa WNW 7.9 km/h 17.7 km/h 61% 0.0 mm 513 W/m2
14:10 20.8 °C 12.7 °C 1010.5 hPa West 13 km/h 14.5 km/h 60% 0.0 mm 939 W/m2
14:15 21 °C 12.9 °C 1010.2 hPa WSW 6.4 km/h 17.7 km/h 60% 0.0 mm 847 W/m2
14:20 21.3 °C 13 °C 1010.2 hPa West 6.4 km/h 9.7 km/h 59% 0.0 mm 316 W/m2
14:25 21.2 °C 12.6 °C 1010.5 hPa WSW 3.2 km/h 19.3 km/h 58% 0.0 mm 237 W/m2
14:30 20.9 °C 12.8 °C 1010.2 hPa NW 4.7 km/h 8 km/h 60% 0.0 mm 171 W/m2
14:35 20.8 °C 13 °C 1010.2 hPa West 6.4 km/h 19.3 km/h 61% 0.0 mm 243 W/m2
14:40 20.7 °C 12.9 °C 1010.2 hPa West 4.7 km/h 11.3 km/h 61% 0.0 mm 420 W/m2
14:45 21.1 °C 13.5 °C 1010.2 hPa West 9.7 km/h 17.7 km/h 62% 0.0 mm 591 W/m2
14:50 21.1 °C 13 °C 1010.2 hPa WSW 6.4 km/h 9.7 km/h 60% 0.0 mm 431 W/m2
14:55 21.2 °C 12.9 °C 1010.2 hPa WNW 4.7 km/h 17.7 km/h 59% 0.0 mm 371 W/m2
15:00 21.3 °C 13 °C 1010.2 hPa NW 4.7 km/h 11.3 km/h 59% 0.0 mm 366 W/m2
15:05 21.5 °C 13.7 °C 1010.2 hPa WNW 7.9 km/h 9.7 km/h 61% 0.0 mm 390 W/m2
15:23 20.9 °C 13.3 °C 1010.2 hPa WSW 7.9 km/h 12.9 km/h 62% 0.0 mm 253 W/m2
15:28 20.9 °C 13.8 °C 1010.2 hPa WNW 11.1 km/h 11.3 km/h 64% 0.0 mm 269 W/m2
15:34 20.9 °C 13.6 °C 1010.2 hPa SW 4.7 km/h 6.4 km/h 63% 0.0 mm 339 W/m2
15:39 21.3 °C 13.5 °C 1010.2 hPa WNW 7.9 km/h 9.7 km/h 61% 0.0 mm 232 W/m2
15:44 21.4 °C 13.6 °C 1010.2 hPa WSW 6.4 km/h 9.7 km/h 61% 0.0 mm 243 W/m2
15:49 21.4 °C 13.3 °C 1010.2 hPa West 6.4 km/h 9.7 km/h 60% 0.0 mm 840 W/m2
15:54 21.8 °C 13.2 °C 1010.2 hPa WSW 4.7 km/h 14.5 km/h 58% 0.0 mm 831 W/m2
15:59 21.9 °C 13.3 °C 1010.2 hPa WSW 6.4 km/h 17.7 km/h 58% 0.0 mm 837 W/m2
16:04 22.1 °C 13.4 °C 1010.2 hPa WNW 16.3 km/h 16.1 km/h 58% 0.0 mm 837 W/m2
16:09 21.8 °C 13.2 °C 1010.2 hPa NW 11.1 km/h 17.7 km/h 58% 0.0 mm 795 W/m2
16:14 21.8 °C 13.7 °C 1010.2 hPa NW 4.7 km/h 6.4 km/h 60% 0.0 mm 359 W/m2
16:19 21.8 °C 13.4 °C 1010.2 hPa NW 6.4 km/h 8 km/h 59% 0.0 mm 330 W/m2
16:35 21.9 °C 13 °C 1009.8 hPa Calm   4.8 km/h 57% 0.0 mm 633 W/m2
16:40 22 °C 13.1 °C 1010.2 hPa WNW 7.9 km/h 14.5 km/h 57% 0.0 mm 404 W/m2
16:45 21.9 °C 13.3 °C 1010.2 hPa Calm   3.2 km/h 58% 0.0 mm 545 W/m2
16:50 22.2 °C 13.5 °C 1010.2 hPa NW 6.4 km/h 14.5 km/h 58% 0.0 mm 255 W/m2
16:55 21.9 °C 13.3 °C 1010.2 hPa WNW 6.4 km/h 12.9 km/h 58% 0.0 mm 304 W/m2
17:00 21.8 °C 13.4 °C 1010.2 hPa WNW 4.7 km/h 8 km/h 59% 0.0 mm 390 W/m2
17:05 21.8 °C 13.9 °C 1010.2 hPa WNW 1.4 km/h 12.9 km/h 61% 0.0 mm 325 W/m2
17:10 21.9 °C 13.8 °C 1010.2 hPa NW 1.4 km/h 3.2 km/h 60% 0.0 mm 297 W/m2
17:15 21.9 °C 13.3 °C 1010.2 hPa WSW 16.3 km/h 16.1 km/h 58% 0.0 mm 285 W/m2
17:20 21.7 °C 13.1 °C 1010.2 hPa Calm   4.8 km/h 58% 0.0 mm 246 W/m2
17:25 21.5 °C 12.9 °C 1010.2 hPa West 6.4 km/h 11.3 km/h 58% 0.0 mm 236 W/m2
17:30 21.4 °C 12.8 °C 1009.8 hPa West 9.7 km/h 12.9 km/h 58% 0.0 mm 316 W/m2
17:50 21.5 °C 13.1 °C 1009.8 hPa WSW 6.4 km/h 11.3 km/h 59% 0.0 mm 323 W/m2
17:55 21.5 °C 13.4 °C 1009.8 hPa WNW 11.1 km/h 11.3 km/h 60% 0.0 mm 364 W/m2
18:00 21.6 °C 13 °C 1009.8 hPa WSW 4.7 km/h 6.4 km/h 58% 0.0 mm 260 W/m2
18:05 21.7 °C 13.3 °C 1009.8 hPa Calm   3.2 km/h 59% 0.0 mm 251 W/m2
18:10 21.7 °C 13.6 °C 1009.5 hPa WNW 3.2 km/h 9.7 km/h 60% 0.0 mm 246 W/m2
18:29 21.4 °C 13.6 °C 1009.5 hPa West 4.7 km/h 4.8 km/h 61% 0.0 mm 211 W/m2
18:34 21.4 °C 13.3 °C 1009.5 hPa West 9.7 km/h 11.3 km/h 60% 0.0 mm 197 W/m2
18:39 21.4 °C 13.3 °C 1009.5 hPa Calm   6.4 km/h 60% 0.0 mm 186 W/m2
18:44 21.4 °C 13.3 °C 1009.1 hPa NW 1.4 km/h 3.2 km/h 60% 0.0 mm 218 W/m2
18:49 21.4 °C 13.6 °C 1009.1 hPa West 4.7 km/h 6.4 km/h 61% 0.0 mm 169 W/m2
18:54 21.4 °C 13.8 °C 1009.5 hPa WSW 3.2 km/h 3.2 km/h 62% 0.0 mm 142 W/m2
18:59 21.4 °C 13.8 °C 1009.1 hPa SW 1.4 km/h 3.2 km/h 62% 0.0 mm 156 W/m2
19:04 21.3 °C 13.2 °C 1009.1 hPa WNW 1.4 km/h 9.7 km/h 60% 0.0 mm 151 W/m2
19:09 21.2 °C 13.1 °C 1009.1 hPa West 1.4 km/h 6.4 km/h 60% 0.0 mm 139 W/m2
19:14 21.2 °C 13.6 °C 1009.5 hPa West 3.2 km/h 4.8 km/h 62% 0.0 mm 137 W/m2
19:19 21.2 °C 14.1 °C 1009.5 hPa Calm   1.6 km/h 64% 0.0 mm 125 W/m2
19:24 21.2 °C 13.6 °C 1009.5 hPa NW 1.4 km/h 4.8 km/h 62% 0.0 mm 123 W/m2
19:29 21.2 °C 14.4 °C 1009.5 hPa Calm   1.6 km/h 65% 0.0 mm 146 W/m2
19:34 21.3 °C 13.5 °C 1009.5 hPa NW 1.4 km/h 3.2 km/h 61% 0.0 mm 137 W/m2
19:39 21.3 °C 13.5 °C 1009.5 hPa West 1.4 km/h 3.2 km/h 61% 0.0 mm 125 W/m2
19:44 21.2 °C 13.6 °C 1009.5 hPa WSW 3.2 km/h 4.8 km/h 62% 0.0 mm 109 W/m2
19:49 21.1 °C 14 °C 1009.5 hPa West 1.4 km/h 1.6 km/h 64% 0.0 mm 111 W/m2
19:54 20.9 °C 13.3 °C 1009.5 hPa West 1.4 km/h 4.8 km/h 62% 0.0 mm 102 W/m2
20:12 20.5 °C 13.5 °C 1009.5 hPa Calm   3.2 km/h 64% 0.0 mm 56 W/m2
20:17 20.4 °C 13.6 °C 1009.5 hPa WSW 3.2 km/h 3.2 km/h 65% 0.0 mm 47 W/m2
20:22 20.3 °C 14 °C 1009.5 hPa Calm   1.6 km/h 67% 0.0 mm 42 W/m2
20:27 20.2 °C 14.3 °C 1009.5 hPa Calm   1.6 km/h 69% 0.0 mm 35 W/m2
20:32 20 °C 14.1 °C 1009.5 hPa Calm     69% 0.0 mm 32 W/m2
20:37 19.8 °C 14.2 °C 1009.5 hPa Calm     70% 0.0 mm 26 W/m2
20:42 19.6 °C 14.2 °C 1009.5 hPa Calm     71% 0.0 mm 23 W/m2
20:47 19.4 °C 14 °C 1009.5 hPa Calm     71% 0.0 mm 18 W/m2
20:52 19.3 °C 13.9 °C 1009.8 hPa Calm   1.6 km/h 71% 0.0 mm 12 W/m2
20:57 19.1 °C 13.7 °C 1009.8 hPa Calm     71% 0.0 mm 11 W/m2
21:18 18.4 °C 13.3 °C 1009.8 hPa Calm     72% 0.0 mm 5 W/m2
21:23 18.4 °C 13 °C 1009.8 hPa WNW 4.7 km/h 4.8 km/h 71% 0.0 mm 0 W/m2
21:28 18.3 °C 12.7 °C 1009.8 hPa West 3.2 km/h 6.4 km/h 70% 0.0 mm 0 W/m2
21:33 18.4 °C 12.6 °C 1009.8 hPa WNW 1.4 km/h 9.7 km/h 69% 0.0 mm 0 W/m2
21:50 18.7 °C 12.9 °C 1009.8 hPa WNW 1.4 km/h 6.4 km/h 69% 0.0 mm 0 W/m2
21:55 18.6 °C 12.8 °C 1009.8 hPa West 3.2 km/h 4.8 km/h 69% 0.0 mm 0 W/m2
22:00 18.6 °C 12.8 °C 1009.8 hPa West 1.4 km/h 6.4 km/h 69% 0.0 mm 0 W/m2
22:05 18.6 °C 13 °C 1009.5 hPa WNW 1.4 km/h 4.8 km/h 70% 0.0 mm 0 W/m2
22:10 18.4 °C 12.8 °C 1009.5 hPa WSW 3.2 km/h 6.4 km/h 70% 0.0 mm 0 W/m2
22:15 18.4 °C 12.8 °C 1009.5 hPa West 6.4 km/h 8 km/h 70% 0.0 mm 0 W/m2
22:20 18.3 °C 12.7 °C 1009.5 hPa WNW 3.2 km/h 9.7 km/h 70% 0.0 mm 0 W/m2
22:25 18.3 °C 12.7 °C 1009.5 hPa West 3.2 km/h 6.4 km/h 70% 0.0 mm 0 W/m2
22:30 18.2 °C 12.9 °C 1009.5 hPa WNW 1.4 km/h 6.4 km/h 71% 0.0 mm 0 W/m2
22:35 18.2 °C 12.9 °C 1009.5 hPa WSW 1.4 km/h 11.3 km/h 71% 0.0 mm 0 W/m2
22:40 18.1 °C 12.8 °C 1009.5 hPa West 3.2 km/h 8 km/h 71% 0.0 mm 0 W/m2
22:45 18.1 °C 13 °C 1009.8 hPa WNW 3.2 km/h 9.7 km/h 72% 0.0 mm 0 W/m2
22:50 18 °C 13.1 °C 1009.8 hPa West 4.7 km/h 11.3 km/h 73% 0.0 mm 0 W/m2
22:55 18 °C 13.1 °C 1010.2 hPa West 4.7 km/h 6.4 km/h 73% 0.0 mm 0 W/m2
23:00 17.9 °C 13.2 °C 1009.8 hPa West 4.7 km/h 6.4 km/h 74% 0.0 mm 0 W/m2
23:05 17.8 °C 13.1 °C 1009.8 hPa West 3.2 km/h 4.8 km/h 74% 0.0 mm 0 W/m2
23:10 17.7 °C 13 °C 1009.8 hPa West 3.2 km/h 6.4 km/h 74% 0.0 mm 0 W/m2
23:15 17.6 °C 13.1 °C 1009.8 hPa West 3.2 km/h 4.8 km/h 75% 0.0 mm 0 W/m2
23:20 17.4 °C 13.1 °C 1009.8 hPa West 3.2 km/h 6.4 km/h 76% 0.0 mm 0 W/m2
23:25 17.2 °C 13.1 °C 1009.8 hPa West 3.2 km/h 3.2 km/h 77% 0.0 mm 0 W/m2
23:30 17.1 °C 13.2 °C 1009.8 hPa Calm   3.2 km/h 78% 0.0 mm 0 W/m2
23:35 17 °C 13.3 °C 1009.8 hPa WSW 1.4 km/h 3.2 km/h 79% 0.0 mm 0 W/m2
23:40 16.9 °C 13.2 °C 1009.8 hPa Calm   3.2 km/h 79% 0.0 mm 0 W/m2
23:45 16.8 °C 13.1 °C 1009.5 hPa WSW 1.4 km/h 1.6 km/h 79% 0.0 mm 0 W/m2
23:50 16.8 °C 13.3 °C 1009.8 hPa Calm   3.2 km/h 80% 0.0 mm 0 W/m2
23:55 16.7 °C 13.2 °C 1009.8 hPa Calm   1.6 km/h 80% 0.0 mm 0 W/m2
Juneau County Weather
Compliments of Weather Underground - 2 mb